Terminal Aerodrome Forecast
Issued by NWS

Home | Current Version | Previous Version | Text Only | Print | Product List | Glossary On
Versions: 1 2 3 4 5 6 7 8 9 10 11 12 13 14 15 16 17 18
000
FTUS41 KALY 271019 AAB
TAFPSF
TAF AMD
KPSF 271019Z 2710/2806 24004KT P6SM OVC025
      TEMPO 2711/2714 OVC015
     FM271400 27004KT P6SM SCT025 BKN050
     FM271700 25005KT P6SM SCT050
     FM272300 VRB03KT P6SM SKC=

USA.gov is the U.S. government's official web portal to all federal, state and local government web resources and services.